Time;durP1;ratioP1;P1;durP2;ratioP2;P2;SDS_P1;SDS_P2;PMS_P1;PMS_P2;Temp;Humidity;BMP_temperature;BMP_pressure;BME280_temperature;BME280_humidity;BME280_pressure;Samples;Min_cycle;Max_cycle;Signal;HPM_P1;HPM_P2
2023/09/26 00:00:27;;;;;;;22.92;10.18;;;;;;;8.30;100.00;101326.91;4952567;28;20050;-71
2023/09/26 00:02:54;;;;;;;16.02;9.75;;;;;;;8.36;100.00;101331.69;4953920;28;20424;-71
2023/09/26 00:05:23;;;;;;;16.17;10.38;;;;;;;8.29;100.00;101327.84;4953993;28;20131;-66
2023/09/26 00:07:55;;;;;;;15.68;10.07;;;;;;;8.22;100.00;101321.34;4953614;28;20051;-67
2023/09/26 00:10:21;;;;;;;13.77;10.90;;;;;;;8.09;100.00;101303.69;4954232;28;20047;-67
2023/09/26 00:12:48;;;;;;;19.90;10.70;;;;;;;8.11;100.00;101307.06;4952623;28;20058;-65
2023/09/26 00:15:15;;;;;;;13.23;10.48;;;;;;;8.12;100.00;101305.22;4953939;28;20051;-67
2023/09/26 00:17:42;;;;;;;13.80;10.38;;;;;;;8.14;100.00;101309.47;4954041;28;20047;-66
2023/09/26 00:20:27;;;;;;;15.25;10.18;;;;;;;8.12;100.00;101303.44;4936169;28;20047;-66
2023/09/26 00:22:55;;;;;;;14.82;10.25;;;;;;;8.08;100.00;101293.13;4933056;29;20040;-66
2023/09/26 00:25:23;;;;;;;16.80;10.55;;;;;;;7.99;100.00;101281.41;4933756;29;20047;-70
2023/09/26 00:27:50;;;;;;;15.27;10.35;;;;;;;8.03;100.00;101288.16;4934859;29;20134;-71
2023/09/26 00:30:17;;;;;;;15.77;10.90;;;;;;;8.12;100.00;101295.41;4934739;29;20525;-70
2023/09/26 00:32:44;;;;;;;14.60;10.35;;;;;;;8.10;100.00;101286.66;4934738;29;20051;-71
2023/09/26 00:35:12;;;;;;;16.67;11.38;;;;;;;7.97;100.00;101280.66;4934220;29;20047;-70
2023/09/26 00:37:42;;;;;;;13.13;10.95;;;;;;;7.95;100.00;101274.63;4934715;29;20051;-69
2023/09/26 00:40:11;;;;;;;16.37;10.67;;;;;;;8.08;100.00;101282.41;4933545;29;20056;-69
2023/09/26 00:42:38;;;;;;;15.20;10.20;;;;;;;8.19;100.00;101295.72;4934293;29;20047;-72
2023/09/26 00:45:05;;;;;;;18.60;11.27;;;;;;;8.08;100.00;101282.41;4934526;29;20052;-71
2023/09/26 00:47:34;;;;;;;18.08;11.48;;;;;;;8.04;100.00;101281.84;4933962;28;20461;-70
2023/09/26 00:50:03;;;;;;;18.65;11.55;;;;;;;8.02;100.00;101283.81;4934452;29;20575;-69
2023/09/26 00:52:30;;;;;;;14.80;11.27;;;;;;;7.99;100.00;101277.88;4934348;29;20078;-69
2023/09/26 00:54:58;;;;;;;17.42;10.93;;;;;;;8.03;100.00;101274.81;4934764;29;20118;-71
2023/09/26 00:57:27;;;;;;;16.13;11.77;;;;;;;8.06;100.00;101284.41;4933453;28;20102;-70
2023/09/26 00:59:53;;;;;;;14.93;11.45;;;;;;;8.08;100.00;101287.78;4933925;29;20097;-71
2023/09/26 01:02:20;;;;;;;15.23;11.00;;;;;;;7.97;100.00;101269.97;4934275;29;20159;-69
2023/09/26 01:04:46;;;;;;;15.65;11.05;;;;;;;7.97;100.00;101272.66;4932789;29;20055;-69
2023/09/26 01:07:22;;;;;;;15.05;11.13;;;;;;;8.00;100.00;101269.72;4932408;29;20051;-69
2023/09/26 01:09:49;;;;;;;14.68;11.40;;;;;;;7.95;100.00;101271.06;4933375;29;20063;-70
2023/09/26 01:12:16;;;;;;;17.00;11.27;;;;;;;7.76;100.00;101255.72;4932678;29;20058;-71
2023/09/26 01:14:43;;;;;;;19.38;12.07;;;;;;;7.83;100.00;101254.25;4933031;28;20147;-69
2023/09/26 01:17:09;;;;;;;17.40;11.75;;;;;;;7.16;100.00;101148.63;4933867;29;20052;-71
2023/09/26 01:19:36;;;;;;;18.08;11.00;;;;;;;7.16;100.00;101165.47;4933589;29;20099;-71
2023/09/26 01:22:03;;;;;;;22.13;11.65;;;;;;;7.07;100.00;101157.38;4932708;29;20114;-70
2023/09/26 01:24:30;;;;;;;15.13;11.32;;;;;;;6.85;100.00;101132.47;4933569;29;20048;-70
2023/09/26 01:26:56;;;;;;;18.60;11.57;;;;;;;6.67;100.00;101113.50;4933679;29;20122;-70
2023/09/26 01:29:23;;;;;;;19.98;11.75;;;;;;;6.64;100.00;101108.41;4933755;29;20070;-69
2023/09/26 01:31:50;;;;;;;17.30;12.15;;;;;;;6.58;100.00;101097.41;4933361;29;20055;-70
2023/09/26 01:34:17;;;;;;;18.83;12.35;;;;;;;6.54;100.00;101090.63;4932880;29;20074;-71
2023/09/26 01:36:44;;;;;;;17.90;11.77;;;;;;;6.56;100.00;101083.34;4933020;29;20051;-69
2023/09/26 01:39:10;;;;;;;21.70;12.43;;;;;;;6.74;100.00;101116.50;4932430;29;20051;-71
2023/09/26 01:41:37;;;;;;;15.80;12.25;;;;;;;6.86;100.00;101127.97;4933503;29;20063;-69
2023/09/26 01:44:05;;;;;;;18.60;12.60;;;;;;;6.89;100.00;101133.91;4933761;29;20047;-70
2023/09/26 01:46:32;;;;;;;22.70;13.05;;;;;;;6.85;100.00;101134.28;4933497;29;20464;-69
2023/09/26 01:48:58;;;;;;;15.15;12.23;;;;;;;6.79;100.00;101119.63;4933687;28;20054;-65
2023/09/26 01:51:25;;;;;;;18.60;11.95;;;;;;;6.54;100.00;101091.47;4932886;28;20052;-65
2023/09/26 01:53:52;;;;;;;20.70;12.18;;;;;;;6.51;100.00;101081.06;4933521;29;20048;-67
2023/09/26 01:56:19;;;;;;;17.67;12.43;;;;;;;5.91;100.00;100997.09;4932187;29;20062;-66
2023/09/26 01:58:47;;;;;;;20.48;13.35;;;;;;;5.84;100.00;100982.59;4931725;29;20047;-67
2023/09/26 02:01:14;;;;;;;18.80;13.35;;;;;;;5.41;100.00;100922.97;4932023;29;20052;-67
2023/09/26 02:03:42;;;;;;;21.25;13.20;;;;;;;4.51;100.00;100784.69;4931863;29;20052;-66
2023/09/26 02:06:08;;;;;;;20.38;13.25;;;;;;;3.69;100.00;100648.56;4933230;29;20078;-67
2023/09/26 02:08:36;;;;;;;16.73;13.57;;;;;;;3.35;100.00;100602.53;4932520;29;20048;-67
2023/09/26 02:11:02;;;;;;;28.40;15.10;;;;;;;2.66;100.00;100488.47;4931210;29;20106;-67
2023/09/26 02:13:29;;;;;;;21.38;13.90;;;;;;;3.09;100.00;100560.25;4932879;29;20055;-68
2023/09/26 02:15:56;;;;;;;22.70;13.65;;;;;;;2.99;100.00;100551.31;4932030;29;20051;-66
2023/09/26 02:18:22;;;;;;;19.20;14.18;;;;;;;2.39;100.00;100459.59;4935124;28;20114;-67
2023/09/26 02:20:49;;;;;;;20.33;14.32;;;;;;;1.70;100.00;100343.78;4950761;28;20054;-67
2023/09/26 02:23:16;;;;;;;19.10;15.05;;;;;;;2.01;100.00;100393.63;4951136;28;20044;-67
2023/09/26 02:25:51;;;;;;;24.00;14.73;;;;;;;2.24;100.00;100447.50;4951483;28;20102;-67
2023/09/26 02:28:19;;;;;;;34.78;15.35;;;;;;;1.38;100.00;100300.34;4951023;28;20075;-66
2023/09/26 02:30:46;;;;;;;19.05;14.65;;;;;;;1.61;100.00;100338.31;4951460;28;20047;-67
2023/09/26 02:33:13;;;;;;;19.17;15.00;;;;;;;1.90;100.00;100387.28;4951022;28;20051;-66
2023/09/26 02:35:39;;;;;;;24.92;15.43;;;;;;;2.18;100.00;100438.22;4951648;28;20464;-66
2023/09/26 02:38:08;;;;;;;21.17;15.23;;;;;;;1.70;100.00;100364.09;4950442;28;20047;-66
2023/09/26 02:40:34;;;;;;;25.25;15.77;;;;;;;1.54;100.00;100342.34;4950973;28;20058;-67
2023/09/26 02:43:01;;;;;;;19.88;14.32;;;;;;;0.43;100.00;100164.53;4951544;28;20118;-67
2023/09/26 02:45:28;;;;;;;24.60;15.50;;;;;;;0.95;100.00;100242.66;4951651;28;20129;-67
2023/09/26 02:47:54;;;;;;;19.83;15.20;;;;;;;1.66;100.00;100357.34;4951236;28;20531;-67
2023/09/26 02:50:22;;;;;;;24.65;15.88;;;;;;;1.71;100.00;100363.13;4950754;28;20427;-68
2023/09/26 02:52:48;;;;;;;21.10;16.02;;;;;;;2.24;100.00;100443.06;4951202;28;20523;-68
2023/09/26 02:55:15;;;;;;;24.50;15.65;;;;;;;2.42;100.00;100476.09;4951031;28;20100;-66
2023/09/26 02:57:42;;;;;;;22.33;15.15;;;;;;;2.44;100.00;100475.97;4951129;28;20050;-68
2023/09/26 03:00:18;;;;;;;22.25;15.32;;;;;;;2.38;100.00;100472.00;4964090;28;20071;-61
2023/09/26 03:02:46;;;;;;;24.02;15.55;;;;;;;2.31;100.00;100470.75;4968348;28;20053;-63
2023/09/26 03:05:15;;;;;;;18.17;15.07;;;;;;;2.26;100.00;100457.00;4968642;28;20051;-62
2023/09/26 03:07:42;;;;;;;20.55;15.63;;;;;;;2.31;100.00;100465.47;4968343;28;20054;-63
2023/09/26 03:10:10;;;;;;;19.20;15.27;;;;;;;2.25;100.00;100455.31;4970095;28;20070;-62
2023/09/26 03:12:37;;;;;;;20.35;15.82;;;;;;;2.15;100.00;100441.06;4964260;28;20047;-65
2023/09/26 03:15:06;;;;;;;19.83;16.20;;;;;;;2.18;100.00;100443.50;4954657;28;20439;-66
2023/09/26 03:17:33;;;;;;;20.25;15.93;;;;;;;1.79;100.00;100389.88;4955433;28;20082;-64
2023/09/26 03:20:00;;;;;;;26.10;16.90;;;;;;;0.98;100.00;100259.13;4954737;28;20075;-66
2023/09/26 03:22:27;;;;;;;21.00;16.98;;;;;;;0.58;100.00;100199.56;4954642;28;20054;-65
2023/09/26 03:24:55;;;;;;;21.95;16.23;;;;;;;-0.09;100.00;100076.72;4954372;28;20155;-65
2023/09/26 03:27:23;;;;;;;26.20;16.58;;;;;;;-0.23;100.00;100053.13;4954969;28;20043;-65
2023/09/26 03:29:50;;;;;;;21.33;16.35;;;;;;;-0.43;100.00;100021.13;4954084;28;20062;-65
2023/09/26 03:32:17;;;;;;;23.25;16.48;;;;;;;-3.77;100.00;99489.03;4953715;28;20051;-70
2023/09/26 03:34:44;;;;;;;18.70;16.58;;;;;;;-7.43;100.00;98878.69;4953798;28;20086;-70
2023/09/26 03:37:11;;;;;;;19.98;16.75;;;;;;;-7.40;100.00;98887.16;4953737;28;20095;-71
2023/09/26 03:39:37;;;;;;;23.63;17.73;;;;;;;-7.82;100.00;98815.06;4954499;28;20051;-71
2023/09/26 03:42:04;;;;;;;23.80;17.40;;;;;;;-7.87;100.00;98804.09;4954492;28;20078;-70
2023/09/26 03:44:32;;;;;;;26.75;17.20;;;;;;;-7.70;100.00;98827.34;4953087;28;20185;-70
2023/09/26 03:46:58;;;;;;;28.25;18.33;;;;;;;-10.25;100.00;98420.34;4953244;28;20098;-71
2023/09/26 03:49:25;;;;;;;20.63;18.20;;;;;;;-11.63;100.00;98207.00;4953788;28;20054;-70
2023/09/26 03:51:52;;;;;;;22.55;18.33;;;;;;;-21.45;100.00;96616.81;4954026;28;20046;-70
2023/09/26 03:54:18;;;;;;;26.13;20.67;;;;;;;-50.10;100.00;92062.66;4950844;28;20081;-70
2023/09/26 03:56:45;;;;;;;27.13;20.73;;;;;;;-149.70;100.00;77536.78;4952936;28;20043;-72
2023/09/26 03:59:12;;;;;;;26.50;19.50;;;;;;;-149.70;100.00;77536.78;4952498;28;20086;-71
2023/09/26 04:01:38;;;;;;;25.60;20.80;;;;;;;-149.70;100.00;77532.72;4953368;28;20459;-70
2023/09/26 04:04:07;;;;;;;29.60;20.98;;;;;;;-149.70;100.00;77544.94;4953595;28;20070;-70
2023/09/26 04:06:34;;;;;;;31.55;21.38;;;;;;;-149.70;100.00;77536.78;4953182;28;20479;-71
2023/09/26 04:09:01;;;;;;;29.55;20.80;;;;;;;-149.70;100.00;77549.00;4952567;28;20086;-70
2023/09/26 04:11:28;;;;;;;34.55;22.75;;;;;;;-149.70;100.00;77551.03;4953736;28;20503;-70
2023/09/26 04:13:55;;;;;;;29.27;21.83;;;;;;;-149.70;100.00;77553.06;4959462;28;20106;-63
2023/09/26 04:16:22;;;;;;;25.60;21.15;;;;;;;-149.70;100.00;77559.16;4968070;28;20055;-63
2023/09/26 04:18:48;;;;;;;33.55;20.98;;;;;;;-149.70;100.00;77555.09;4954142;28;20071;-65
2023/09/26 04:21:15;;;;;;;29.23;20.83;;;;;;;-149.70;100.00;77557.13;4932427;29;20146;-66
2023/09/26 04:23:42;;;;;;;28.73;21.38;;;;;;;-149.70;100.00;77559.16;4933798;29;20048;-64
2023/09/26 04:26:15;;;;;;;28.25;20.92;;;;;;;-149.70;100.00;77559.16;4934010;29;20167;-65
2023/09/26 04:28:43;;;;;;;29.55;21.10;;;;;;;-149.70;100.00;77553.06;4933779;29;20090;-64
2023/09/26 04:31:16;;;;;;;27.77;20.73;;;;;;;-149.70;100.00;77544.94;4933047;29;20469;-64
2023/09/26 04:33:44;;;;;;;33.45;21.20;;;;;;;-149.70;100.00;77549.00;4934369;29;20500;-64
2023/09/26 04:36:11;;;;;;;28.65;22.00;;;;;;;-149.70;100.00;77551.03;4933480;29;20047;-65
2023/09/26 04:38:37;;;;;;;34.58;22.73;;;;;;;-149.70;100.00;77549.00;4932526;29;20131;-64
2023/09/26 04:41:04;;;;;;;28.83;21.20;;;;;;;-149.70;100.00;77549.00;4932979;29;20111;-64
2023/09/26 04:43:31;;;;;;;41.85;22.55;;;;;;;-149.70;100.00;77546.97;4933558;29;20044;-65
2023/09/26 04:45:58;;;;;;;25.60;21.40;;;;;;;-149.70;100.00;77549.00;4933374;29;20056;-64
2023/09/26 04:48:25;;;;;;;30.30;21.20;;;;;;;-149.70;100.00;77540.84;4932029;29;20052;-66
2023/09/26 04:50:52;;;;;;;31.08;21.98;;;;;;;-149.70;100.00;77540.84;4933728;29;20048;-65
2023/09/26 04:53:19;;;;;;;28.13;20.85;;;;;;;-149.70;100.00;77542.88;4934364;29;20393;-65
2023/09/26 04:55:45;;;;;;;28.05;20.80;;;;;;;-149.70;100.00;77540.84;4932818;29;20051;-65
2023/09/26 04:58:12;;;;;;;32.22;22.60;;;;;;;-149.70;100.00;77542.88;4931997;29;20048;-66
2023/09/26 05:00:39;;;;;;;28.30;21.58;;;;;;;-149.70;100.00;77540.84;4931497;29;20044;-65
2023/09/26 05:03:05;;;;;;;29.98;22.83;;;;;;;-149.70;100.00;77538.81;4932509;29;20473;-66
2023/09/26 05:05:32;;;;;;;30.55;22.80;;;;;;;-149.70;100.00;77536.78;4934321;29;20051;-66
2023/09/26 05:07:59;;;;;;;30.17;22.30;;;;;;;-149.70;100.00;77534.75;4933660;29;20476;-64
2023/09/26 05:10:26;;;;;;;28.65;20.92;;;;;;;-149.70;100.00;77536.78;4933169;29;20052;-64
2023/09/26 05:12:53;;;;;;;27.33;21.73;;;;;;;-149.70;100.00;77538.81;4932476;29;20127;-64
2023/09/26 05:15:19;;;;;;;27.95;22.92;;;;;;;-149.70;100.00;77532.72;4932546;29;20059;-64
2023/09/26 05:17:51;;;;;;;57.00;40.25;;;;;;;-149.70;100.00;77528.66;4932413;29;20051;-65
2023/09/26 05:20:19;;;;;;;58.80;38.35;;;;;;;-149.70;100.00;77526.63;4951964;28;20411;-65
2023/09/26 05:22:48;;;;;;;38.10;24.45;;;;;;;-149.70;100.00;77534.75;4950371;28;20130;-64
2023/09/26 05:25:15;;;;;;;32.45;23.83;;;;;;;-149.70;100.00;77522.56;4949836;28;20055;-65
2023/09/26 05:27:43;;;;;;;29.10;23.33;;;;;;;-149.70;100.00;77520.53;4951754;28;20074;-64
2023/09/26 05:30:12;;;;;;;29.73;22.52;;;;;;;-149.70;100.00;77514.41;4950603;28;20069;-65
2023/09/26 05:32:40;;;;;;;28.45;21.98;;;;;;;-149.70;100.00;77516.44;4951557;28;20051;-65
2023/09/26 05:35:08;;;;;;;38.58;22.63;;;;;;;-149.70;100.00;77510.34;4950007;28;20071;-65
2023/09/26 05:37:36;;;;;;;32.42;24.52;;;;;;;-149.70;100.00;77506.28;4952373;28;20047;-66
2023/09/26 05:40:06;;;;;;;34.17;24.48;;;;;;;-149.70;100.00;77512.38;4952236;28;20054;-65
2023/09/26 05:42:38;;;;;;;36.35;22.20;;;;;;;-149.70;100.00;77510.34;4952382;28;20047;-65
2023/09/26 05:45:07;;;;;;;30.90;22.98;;;;;;;-149.70;100.00;77510.34;4950993;28;20452;-65
2023/09/26 05:47:34;;;;;;;39.38;23.23;;;;;;;-149.70;100.00;77512.38;4951304;28;20047;-66
2023/09/26 05:50:03;;;;;;;31.65;23.30;;;;;;;-149.70;100.00;77510.34;4951421;28;20054;-68
2023/09/26 05:52:30;;;;;;;32.72;21.70;;;;;;;-149.70;100.00;77508.31;4952540;28;20047;-67
2023/09/26 05:54:57;;;;;;;28.02;21.48;;;;;;;-149.70;100.00;77506.28;4952197;28;20053;-67
2023/09/26 05:57:23;;;;;;;38.58;22.25;;;;;;;-149.70;100.00;77502.22;4954480;28;20047;-63
2023/09/26 05:59:50;;;;;;;29.45;21.38;;;;;;;-149.70;100.00;77502.22;4959594;28;20054;-62
2023/09/26 06:02:17;;;;;;;34.35;21.73;;;;;;;-149.70;100.00;77502.22;4959740;28;20439;-62
2023/09/26 06:04:44;;;;;;;33.90;22.95;;;;;;;-149.70;100.00;77500.19;4960543;28;20499;-63
2023/09/26 06:07:11;;;;;;;32.78;22.55;;;;;;;-149.70;100.00;77496.13;4961845;28;20047;-62
2023/09/26 06:09:38;;;;;;;30.63;21.88;;;;;;;-149.70;100.00;77494.06;4961084;28;20051;-65
2023/09/26 06:12:18;;;;;;;29.52;21.27;;;;;;;-149.70;100.00;77479.84;4959390;28;20051;-61
2023/09/26 06:14:47;;;;;;;30.95;22.25;;;;;;;-149.70;100.00;77475.78;4961679;28;20043;-62
2023/09/26 06:17:13;;;;;;;28.90;21.27;;;;;;;-149.70;100.00;77475.78;4959731;28;20054;-62
2023/09/26 06:19:45;;;;;;;30.95;21.65;;;;;;;-149.70;100.00;77469.66;4946628;28;20436;-62
2023/09/26 06:22:11;;;;;;;30.92;22.48;;;;;;;-149.70;100.00;77457.47;4940787;29;20079;-62
2023/09/26 06:24:39;;;;;;;29.20;22.30;;;;;;;-149.70;100.00;77453.41;4940898;29;20492;-64
2023/09/26 06:27:05;;;;;;;27.05;21.55;;;;;;;-149.70;100.00;77437.13;4940186;29;20052;-63
2023/09/26 06:29:32;;;;;;;29.88;21.50;;;;;;;-148.96;100.00;77528.19;4941917;29;20058;-63
2023/09/26 06:31:58;;;;;;;33.40;21.63;;;;;;;-15.73;100.00;97399.53;4941119;29;20048;-62
2023/09/26 06:34:31;;;;;;;33.85;21.75;;;;;;;-0.96;100.00;99812.34;4943982;29;20051;-63
2023/09/26 06:36:58;;;;;;;29.85;21.63;;;;;;;2.63;100.00;100372.16;4946266;29;20054;-61
2023/09/26 06:39:25;;;;;;;31.75;20.88;;;;;;;5.14;100.00;100774.38;4945406;28;20430;-64
2023/09/26 06:41:51;;;;;;;26.35;19.83;;;;;;;6.70;100.00;101017.25;4945795;29;20052;-62
2023/09/26 06:44:18;;;;;;;32.67;20.90;;;;;;;7.77;100.00;101175.47;4944869;29;20048;-62
2023/09/26 06:46:44;;;;;;;31.08;20.70;;;;;;;7.75;100.00;101157.91;4945592;29;20523;-62
2023/09/26 06:49:12;;;;;;;21.17;18.88;;;;;;;7.77;100.00;101137.22;4946917;29;20048;-63
2023/09/26 06:51:38;;;;;;;31.95;19.55;;;;;;;7.81;100.00;101090.56;4952927;29;20047;-63
2023/09/26 06:54:05;;;;;;;25.38;18.55;;;;;;;8.45;100.00;101138.41;4945092;29;20055;-66
2023/09/26 06:56:31;;;;;;;30.92;21.00;;;;;;;9.11;100.00;101207.41;4936036;29;20051;-66
2023/09/26 06:58:58;;;;;;;25.85;17.52;;;;;;;9.88;100.00;101283.44;4936411;29;20047;-64
2023/09/26 07:01:25;;;;;;;23.77;17.65;;;;;;;10.07;100.00;101302.22;4934018;29;20054;-64
2023/09/26 07:03:52;;;;;;;22.35;17.33;;;;;;;9.94;100.00;101275.69;4935526;29;20051;-64
2023/09/26 07:06:19;;;;;;;20.42;17.15;;;;;;;10.00;100.00;101290.38;4934304;29;20056;-65
2023/09/26 07:08:45;;;;;;;24.50;16.08;;;;;;;10.50;100.00;101317.81;4936084;29;20481;-64
2023/09/26 07:11:12;;;;;;;25.23;17.38;;;;;;;11.14;100.00;101374.41;4935287;29;20059;-65
2023/09/26 07:13:39;;;;;;;34.30;16.45;;;;;;;12.16;100.00;101462.94;4934770;29;20039;-70
2023/09/26 07:16:08;;;;;;;25.13;17.15;;;;;;;12.60;100.00;101493.50;4935202;29;20521;-70
2023/09/26 07:18:37;;;;;;;29.45;17.23;;;;;;;13.39;100.00;101547.47;4935609;29;20048;-70
2023/09/26 07:21:07;;;;;;;26.80;16.55;;;;;;;13.99;100.00;101590.66;4934637;29;20130;-69
2023/09/26 07:23:35;;;;;;;29.42;15.23;;;;;;;14.69;100.00;101639.81;4934606;29;20047;-71
2023/09/26 07:26:09;;;;;;;23.90;15.07;;;;;;;14.88;100.00;101663.03;4934205;29;20047;-69
2023/09/26 07:28:40;;;;;;;26.73;15.60;;;;;;;15.37;100.00;101671.22;4934651;29;20081;-70
2023/09/26 07:31:11;;;;;;;22.10;15.48;;;;;;;15.12;100.00;101675.75;4933691;29;20047;-69
2023/09/26 07:33:38;;;;;;;21.35;14.85;;;;;;;15.85;100.00;101671.38;4932451;29;20050;-68
2023/09/26 07:36:06;;;;;;;25.25;13.55;;;;;;;16.05;100.00;101685.34;4932373;29;20043;-70
2023/09/26 07:38:33;;;;;;;25.75;14.88;;;;;;;15.83;100.00;101684.22;4934110;29;20126;-69
2023/09/26 07:41:00;;;;;;;19.00;13.38;;;;;;;15.80;100.00;101690.81;4934005;29;20047;-72
2023/09/26 07:43:32;;;;;;;19.15;14.05;;;;;;;15.57;100.00;101682.53;4933981;29;20079;-71
2023/09/26 07:46:07;;;;;;;20.08;13.85;;;;;;;16.21;100.00;101685.31;4932918;29;20126;-70
2023/09/26 07:48:36;;;;;;;21.10;14.55;;;;;;;16.37;100.00;101682.56;4933488;29;20492;-71
2023/09/26 07:51:04;;;;;;;25.27;14.18;;;;;;;16.71;100.00;101694.94;4933458;29;20114;-70
2023/09/26 07:53:31;;;;;;;23.35;13.88;;;;;;;17.43;100.00;101702.81;4933900;29;20051;-68
2023/09/26 07:55:58;;;;;;;16.90;12.55;;;;;;;17.76;100.00;101710.69;4934518;29;20048;-70
2023/09/26 07:58:25;;;;;;;20.10;12.60;;;;;;;16.48;100.00;101708.41;4932739;29;20181;-68
2023/09/26 08:01:00;;;;;;;19.92;12.90;;;;;;;16.36;100.00;101707.09;4933055;29;20043;-68
2023/09/26 08:03:27;;;;;;;21.65;12.23;;;;;;;17.15;100.00;101697.06;4933351;29;20044;-68
2023/09/26 08:06:13;;;;;;;15.48;12.00;;;;;;;17.88;100.00;101719.22;4933088;29;20047;-68
2023/09/26 08:08:42;;;;;;;20.92;12.43;;;;;;;17.68;100.00;101719.72;4933171;29;20441;-68
2023/09/26 08:11:11;;;;;;;17.88;11.95;;;;;;;18.48;100.00;101720.97;4932609;29;20496;-67
2023/09/26 08:13:39;;;;;;;25.30;12.27;;;;;;;18.40;100.00;101721.09;4933682;29;20108;-68
2023/09/26 08:16:06;;;;;;;20.55;12.48;;;;;;;18.45;100.00;101724.94;4932405;29;20047;-68
2023/09/26 08:18:33;;;;;;;18.20;12.00;;;;;;;18.60;100.00;101721.34;4937802;28;20047;-69
2023/09/26 08:21:00;;;;;;;20.50;11.43;;;;;;;18.44;100.00;101720.50;4952311;28;20056;-69
2023/09/26 08:23:28;;;;;;;18.90;12.32;;;;;;;18.69;100.00;101726.50;4952451;28;20047;-67
2023/09/26 08:26:00;;;;;;;18.00;11.75;;;;;;;19.01;100.00;101730.69;4952355;28;20047;-65
2023/09/26 08:28:28;;;;;;;20.10;13.50;;;;;;;19.77;100.00;101726.66;4951467;28;20039;-67
2023/09/26 08:30:56;;;;;;;20.42;14.27;;;;;;;19.28;100.00;101722.81;4953229;28;20141;-63
2023/09/26 08:33:24;;;;;;;25.48;14.95;;;;;;;18.51;100.00;101717.88;4958070;28;20059;-64
2023/09/26 08:35:52;;;;;;;24.38;15.50;;;;;;;18.76;100.00;101721.16;4959544;28;20055;-64
2023/09/26 08:38:19;;;;;;;20.33;15.32;;;;;;;18.80;100.00;101725.16;4952299;28;20476;-65
2023/09/26 08:40:49;;;;;;;25.60;15.68;;;;;;;18.42;100.00;101722.59;4952548;28;20133;-67
2023/09/26 08:43:22;;;;;;;23.17;14.75;;;;;;;19.23;100.00;101725.25;4952564;28;20106;-69
2023/09/26 08:45:49;;;;;;;21.50;15.75;;;;;;;19.45;100.00;101726.97;4951783;28;20047;-68
2023/09/26 08:48:16;;;;;;;21.73;15.70;;;;;;;19.99;100.00;101722.81;4950048;28;20431;-69
2023/09/26 08:50:43;;;;;;;21.55;15.38;;;;;;;20.24;100.00;101723.19;4950406;28;20051;-67
2023/09/26 08:53:10;;;;;;;30.77;17.38;;;;;;;18.66;100.00;101723.31;4951864;28;20047;-67
2023/09/26 08:55:39;;;;;;;27.92;18.17;;;;;;;19.15;100.00;101712.63;4951855;28;20050;-67
2023/09/26 08:58:06;;;;;;;24.98;18.10;;;;;;;19.54;100.00;101715.94;4950833;28;20091;-68
2023/09/26 09:00:33;;;;;;;28.38;16.55;;;;;;;18.64;100.00;101714.50;4951509;28;20105;-68
2023/09/26 09:03:00;;;;;;;23.58;16.63;;;;;;;18.87;100.00;101715.22;4951690;28;20047;-68
2023/09/26 09:05:27;;;;;;;22.10;14.85;;;;;;;19.84;100.00;101709.31;4951702;28;20125;-69
2023/09/26 09:07:54;;;;;;;21.27;15.85;;;;;;;20.87;100.00;101712.19;4951862;28;20051;-67
2023/09/26 09:10:21;;;;;;;21.52;14.45;;;;;;;21.61;100.00;101712.16;4951425;28;20098;-68
2023/09/26 09:13:01;;;;;;;20.90;13.88;;;;;;;21.26;100.00;101706.03;4951566;28;20074;-67
2023/09/26 09:15:30;;;;;;;17.02;13.52;;;;;;;21.25;97.58;101704.38;4950750;28;20059;-68
2023/09/26 09:17:57;;;;;;;19.38;13.48;;;;;;;21.47;100.00;101718.66;4950733;28;20043;-67
2023/09/26 09:20:42;;;;;;;17.80;12.57;;;;;;;22.61;85.63;101717.53;4930787;29;20043;-67
2023/09/26 09:23:09;;;;;;;20.73;13.43;;;;;;;23.17;76.12;101703.16;4931195;29;20055;-71
2023/09/26 09:25:38;;;;;;;18.15;12.80;;;;;;;23.67;69.79;101703.19;4932491;29;20051;-71
2023/09/26 09:28:07;;;;;;;16.00;11.65;;;;;;;23.30;72.20;101695.91;4931102;29;20051;-74
2023/09/26 09:30:53;;;;;;;21.20;12.75;;;;;;;23.63;72.69;101687.41;4931850;29;20127;-69
2023/09/26 09:33:19;;;;;;;17.83;11.77;;;;;;;23.67;69.94;101691.38;4932373;29;20055;-71
2023/09/26 09:35:46;;;;;;;18.02;10.90;;;;;;;23.70;70.62;101685.47;4931167;29;20054;-70
2023/09/26 09:38:16;;;;;;;22.98;10.80;;;;;;;23.59;68.09;101684.28;4930741;29;20066;-71
2023/09/26 09:40:43;;;;;;;21.67;11.30;;;;;;;23.78;66.56;101687.09;4931246;29;20193;-71
2023/09/26 09:43:10;;;;;;;18.75;9.93;;;;;;;24.42;62.80;101683.91;4932627;28;20047;-70
2023/09/26 09:45:37;;;;;;;19.85;9.93;;;;;;;23.89;64.40;101679.00;4932277;29;20044;-71
2023/09/26 09:48:08;;;;;;;18.02;7.93;;;;;;;25.28;61.17;101675.59;4931136;28;20047;-72
2023/09/26 09:50:39;;;;;;;16.33;8.18;;;;;;;24.99;62.84;101672.63;4932318;29;20420;-70
2023/09/26 09:53:08;;;;;;;14.02;9.05;;;;;;;25.16;59.24;101672.78;4932344;29;20055;-70
2023/09/26 09:55:39;;;;;;;15.40;9.00;;;;;;;26.48;54.19;101669.63;4931378;29;20130;-70
2023/09/26 09:58:08;;;;;;;15.45;8.02;;;;;;;26.64;53.36;101669.91;4932088;29;20051;-71
2023/09/26 10:00:40;;;;;;;15.45;8.27;;;;;;;25.36;55.14;101656.84;4931914;29;20100;-71
2023/09/26 10:03:08;;;;;;;17.33;8.57;;;;;;;24.63;57.04;101655.16;4932029;29;20054;-72
2023/09/26 10:05:35;;;;;;;13.82;7.68;;;;;;;24.13;61.68;101658.06;4932088;29;20087;-72
2023/09/26 10:08:05;;;;;;;15.60;7.45;;;;;;;24.55;61.48;101647.25;4931997;29;20044;-69
2023/09/26 10:10:33;;;;;;;11.40;6.43;;;;;;;26.04;55.75;101652.69;4935781;29;20070;-69
2023/09/26 10:13:03;;;;;;;9.52;6.05;;;;;;;25.72;53.75;101651.38;4935773;29;20052;-70
2023/09/26 10:16:07;;;;;;;11.32;6.65;;;;;;;25.51;55.13;101650.03;4936158;29;20040;-71
2023/09/26 10:18:39;;;;;;;13.35;6.30;;;;;;;26.55;51.17;101642.78;4939831;28;20067;-74
2023/09/26 10:21:25;;;;;;;10.85;6.80;;;;;;;25.93;53.23;101637.06;4954731;28;20058;-74
2023/09/26 10:24:13;;;;;;;14.93;6.68;;;;;;;25.63;53.69;101639.09;4954686;28;20137;-72
2023/09/26 10:26:45;;;;;;;10.32;6.35;;;;;;;23.96;59.72;101635.06;4954157;28;20047;-74
2023/09/26 10:29:14;;;;;;;14.50;6.20;;;;;;;24.28;60.54;101633.00;4953954;28;20456;-71
2023/09/26 10:31:53;;;;;;;13.52;5.80;;;;;;;22.23;70.37;101625.28;4953781;28;20055;-70
2023/09/26 10:34:25;;;;;;;12.65;5.68;;;;;;;22.74;78.20;101629.06;4953767;28;20074;-70
2023/09/26 10:37:19;;;;;;;11.10;5.47;;;;;;;24.47;62.31;101624.78;4953322;28;20062;-71
2023/09/26 10:39:46;;;;;;;9.27;5.50;;;;;;;24.60;63.16;101619.94;4953928;28;20047;-71
2023/09/26 10:42:15;;;;;;;10.85;5.97;;;;;;;23.79;64.95;101617.56;4954685;28;20086;-70
2023/09/26 10:45:01;;;;;;;10.70;5.95;;;;;;;23.03;71.58;101611.22;4953153;28;20051;-68
2023/09/26 10:47:28;;;;;;;13.77;6.03;;;;;;;22.64;71.92;101615.06;4954977;28;20523;-72
2023/09/26 10:49:55;;;;;;;10.60;5.57;;;;;;;21.46;89.16;101612.41;4954729;28;20423;-73
2023/09/26 10:52:26;;;;;;;11.68;5.97;;;;;;;21.31;97.57;101605.25;4954572;28;20124;-74
2023/09/26 10:54:55;;;;;;;9.68;6.15;;;;;;;20.80;100.00;101597.66;4953972;28;20098;-74
2023/09/26 10:57:21;;;;;;;16.85;6.22;;;;;;;20.38;100.00;101596.84;4954740;28;20131;-73
2023/09/26 10:59:51;;;;;;;9.65;5.82;;;;;;;21.28;100.00;101599.38;4954700;28;20138;-74
2023/09/26 11:02:17;;;;;;;12.63;6.22;;;;;;;21.68;96.60;101594.75;4953939;28;20074;-74
2023/09/26 11:04:44;;;;;;;12.27;5.68;;;;;;;21.46;99.61;101601.47;4953709;28;20047;-73
2023/09/26 11:07:31;;;;;;;14.82;5.78;;;;;;;22.21;93.09;101597.34;4953913;28;20057;-73
2023/09/26 11:09:58;;;;;;;7.90;5.13;;;;;;;22.16;94.50;101604.53;4954709;28;20122;-74